sensor_id;sensor_type;location;lat;lon;timestamp;P1;durP1;ratioP1;P2;durP2;ratioP2
72117;SDS011;59992;47.490;8.736;2022-08-01T00:01:41;3.40;;;2.40;;
72117;SDS011;59992;47.490;8.736;2022-08-01T00:04:30;6.80;;;2.70;;
72117;SDS011;59992;47.490;8.736;2022-08-01T00:07:18;5.20;;;2.60;;
72117;SDS011;59992;47.490;8.736;2022-08-01T00:10:08;6.00;;;3.40;;
72117;SDS011;59992;47.490;8.736;2022-08-01T00:12:58;4.30;;;2.80;;
72117;SDS011;59992;47.490;8.736;2022-08-01T00:15:47;8.40;;;3.10;;
72117;SDS011;59992;47.490;8.736;2022-08-01T00:18:35;5.10;;;3.10;;
72117;SDS011;59992;47.490;8.736;2022-08-01T00:21:25;5.00;;;3.30;;
72117;SDS011;59992;47.490;8.736;2022-08-01T00:24:14;7.80;;;4.30;;
72117;SDS011;59992;47.490;8.736;2022-08-01T00:27:03;7.50;;;3.40;;
72117;SDS011;59992;47.490;8.736;2022-08-01T00:29:51;5.60;;;3.10;;
72117;SDS011;59992;47.490;8.736;2022-08-01T00:32:40;5.40;;;3.30;;
72117;SDS011;59992;47.490;8.736;2022-08-01T00:35:29;3.90;;;3.00;;
72117;SDS011;59992;47.490;8.736;2022-08-01T00:38:17;6.30;;;3.90;;
72117;SDS011;59992;47.490;8.736;2022-08-01T00:41:06;5.20;;;3.60;;
72117;SDS011;59992;47.490;8.736;2022-08-01T00:43:55;6.00;;;3.50;;
72117;SDS011;59992;47.490;8.736;2022-08-01T00:46:44;7.20;;;3.70;;
72117;SDS011;59992;47.490;8.736;2022-08-01T00:49:32;4.10;;;3.20;;
72117;SDS011;59992;47.490;8.736;2022-08-01T00:52:21;4.30;;;3.10;;
72117;SDS011;59992;47.490;8.736;2022-08-01T00:55:09;4.30;;;3.00;;
72117;SDS011;59992;47.490;8.736;2022-08-01T00:58:01;4.40;;;3.10;;
72117;SDS011;59992;47.490;8.736;2022-08-01T01:00:50;7.10;;;4.10;;
72117;SDS011;59992;47.490;8.736;2022-08-01T01:03:38;7.90;;;4.40;;
72117;SDS011;59992;47.490;8.736;2022-08-01T01:06:28;7.80;;;5.10;;
72117;SDS011;59992;47.490;8.736;2022-08-01T01:09:29;6.20;;;4.30;;
72117;SDS011;59992;47.490;8.736;2022-08-01T01:12:27;6.00;;;3.60;;
72117;SDS011;59992;47.490;8.736;2022-08-01T01:15:22;4.80;;;3.20;;
72117;SDS011;59992;47.490;8.736;2022-08-01T01:18:14;5.00;;;3.00;;
72117;SDS011;59992;47.490;8.736;2022-08-01T01:21:12;4.20;;;2.80;;
72117;SDS011;59992;47.490;8.736;2022-08-01T01:24:16;4.70;;;2.80;;
72117;SDS011;59992;47.490;8.736;2022-08-01T01:27:18;4.30;;;3.10;;
72117;SDS011;59992;47.490;8.736;2022-08-01T01:30:16;4.40;;;2.90;;
72117;SDS011;59992;47.490;8.736;2022-08-01T01:33:05;3.60;;;2.80;;
72117;SDS011;59992;47.490;8.736;2022-08-01T01:35:58;4.60;;;2.80;;
72117;SDS011;59992;47.490;8.736;2022-08-01T01:38:58;4.00;;;2.90;;
72117;SDS011;59992;47.490;8.736;2022-08-01T01:41:49;4.60;;;2.70;;
72117;SDS011;59992;47.490;8.736;2022-08-01T01:44:45;6.80;;;3.00;;
72117;SDS011;59992;47.490;8.736;2022-08-01T01:47:37;5.80;;;2.90;;
72117;SDS011;59992;47.490;8.736;2022-08-01T01:50:36;4.10;;;2.50;;
72117;SDS011;59992;47.490;8.736;2022-08-01T01:53:26;5.50;;;2.90;;
72117;SDS011;59992;47.490;8.736;2022-08-01T01:56:16;3.50;;;2.70;;
72117;SDS011;59992;47.490;8.736;2022-08-01T01:59:07;5.10;;;3.00;;
72117;SDS011;59992;47.490;8.736;2022-08-01T02:01:56;4.00;;;2.90;;
72117;SDS011;59992;47.490;8.736;2022-08-01T02:04:48;4.10;;;2.60;;
72117;SDS011;59992;47.490;8.736;2022-08-01T02:07:39;3.60;;;2.60;;
72117;SDS011;59992;47.490;8.736;2022-08-01T02:10:29;5.20;;;2.80;;
72117;SDS011;59992;47.490;8.736;2022-08-01T02:13:19;4.20;;;2.50;;
72117;SDS011;59992;47.490;8.736;2022-08-01T02:16:08;3.70;;;2.80;;
72117;SDS011;59992;47.490;8.736;2022-08-01T02:18:58;4.00;;;2.90;;
72117;SDS011;59992;47.490;8.736;2022-08-01T02:21:48;3.30;;;2.60;;
72117;SDS011;59992;47.490;8.736;2022-08-01T02:24:40;3.80;;;2.90;;
72117;SDS011;59992;47.490;8.736;2022-08-01T02:27:34;3.40;;;2.70;;
72117;SDS011;59992;47.490;8.736;2022-08-01T02:30:29;4.80;;;2.60;;
72117;SDS011;59992;47.490;8.736;2022-08-01T02:33:22;14.10;;;3.10;;
72117;SDS011;59992;47.490;8.736;2022-08-01T02:36:18;5.30;;;3.00;;
72117;SDS011;59992;47.490;8.736;2022-08-01T02:39:11;3.80;;;2.60;;
72117;SDS011;59992;47.490;8.736;2022-08-01T02:42:02;3.70;;;2.80;;
72117;SDS011;59992;47.490;8.736;2022-08-01T02:44:55;5.30;;;2.80;;
72117;SDS011;59992;47.490;8.736;2022-08-01T02:47:44;3.10;;;2.50;;
72117;SDS011;59992;47.490;8.736;2022-08-01T02:50:34;3.10;;;2.50;;
72117;SDS011;59992;47.490;8.736;2022-08-01T02:53:25;2.80;;;2.30;;
72117;SDS011;59992;47.490;8.736;2022-08-01T02:56:18;3.70;;;2.50;;
72117;SDS011;59992;47.490;8.736;2022-08-01T02:59:09;3.60;;;2.70;;
72117;SDS011;59992;47.490;8.736;2022-08-01T03:02:02;5.50;;;2.50;;
72117;SDS011;59992;47.490;8.736;2022-08-01T03:04:52;4.30;;;2.60;;
72117;SDS011;59992;47.490;8.736;2022-08-01T03:07:41;2.50;;;2.30;;
72117;SDS011;59992;47.490;8.736;2022-08-01T03:10:31;3.60;;;2.50;;
72117;SDS011;59992;47.490;8.736;2022-08-01T03:13:21;4.40;;;2.50;;
72117;SDS011;59992;47.490;8.736;2022-08-01T03:16:10;4.10;;;2.50;;
72117;SDS011;59992;47.490;8.736;2022-08-01T03:19:00;5.70;;;2.50;;
72117;SDS011;59992;47.490;8.736;2022-08-01T03:21:51;2.70;;;2.30;;
72117;SDS011;59992;47.490;8.736;2022-08-01T03:24:41;3.80;;;2.70;;
72117;SDS011;59992;47.490;8.736;2022-08-01T03:27:33;5.50;;;2.50;;
72117;SDS011;59992;47.490;8.736;2022-08-01T03:30:24;4.50;;;2.60;;
72117;SDS011;59992;47.490;8.736;2022-08-01T03:33:14;4.10;;;2.40;;
72117;SDS011;59992;47.490;8.736;2022-08-01T03:36:03;4.90;;;2.50;;
72117;SDS011;59992;47.490;8.736;2022-08-01T03:38:57;3.10;;;2.20;;
72117;SDS011;59992;47.490;8.736;2022-08-01T03:41:50;4.10;;;2.70;;
72117;SDS011;59992;47.490;8.736;2022-08-01T03:44:43;5.80;;;3.00;;
72117;SDS011;59992;47.490;8.736;2022-08-01T03:47:41;5.10;;;2.60;;
72117;SDS011;59992;47.490;8.736;2022-08-01T03:50:31;3.10;;;2.50;;
72117;SDS011;59992;47.490;8.736;2022-08-01T03:53:24;3.90;;;2.60;;
72117;SDS011;59992;47.490;8.736;2022-08-01T03:56:19;4.00;;;2.60;;
72117;SDS011;59992;47.490;8.736;2022-08-01T03:59:10;4.70;;;3.00;;
72117;SDS011;59992;47.490;8.736;2022-08-01T04:01:59;3.20;;;2.50;;
72117;SDS011;59992;47.490;8.736;2022-08-01T04:04:48;6.30;;;2.80;;
72117;SDS011;59992;47.490;8.736;2022-08-01T04:07:37;3.80;;;2.50;;
72117;SDS011;59992;47.490;8.736;2022-08-01T04:10:27;5.70;;;4.10;;
72117;SDS011;59992;47.490;8.736;2022-08-01T04:13:16;3.50;;;2.70;;
72117;SDS011;59992;47.490;8.736;2022-08-01T04:16:05;5.50;;;2.90;;
72117;SDS011;59992;47.490;8.736;2022-08-01T04:18:53;3.90;;;2.70;;
72117;SDS011;59992;47.490;8.736;2022-08-01T04:21:41;3.90;;;3.00;;
72117;SDS011;59992;47.490;8.736;2022-08-01T04:24:30;5.60;;;2.70;;
72117;SDS011;59992;47.490;8.736;2022-08-01T04:27:23;4.10;;;2.70;;
72117;SDS011;59992;47.490;8.736;2022-08-01T04:30:17;4.40;;;2.70;;
72117;SDS011;59992;47.490;8.736;2022-08-01T04:33:17;3.80;;;2.60;;
72117;SDS011;59992;47.490;8.736;2022-08-01T04:36:29;4.00;;;2.70;;
72117;SDS011;59992;47.490;8.736;2022-08-01T04:39:26;3.20;;;2.30;;
72117;SDS011;59992;47.490;8.736;2022-08-01T04:42:19;4.90;;;2.60;;
72117;SDS011;59992;47.490;8.736;2022-08-01T04:45:08;3.50;;;2.60;;
72117;SDS011;59992;47.490;8.736;2022-08-01T04:47:57;7.40;;;2.70;;
72117;SDS011;59992;47.490;8.736;2022-08-01T04:50:58;3.70;;;2.70;;
72117;SDS011;59992;47.490;8.736;2022-08-01T04:53:48;4.10;;;2.60;;
72117;SDS011;59992;47.490;8.736;2022-08-01T04:56:38;3.90;;;2.60;;
72117;SDS011;59992;47.490;8.736;2022-08-01T04:59:26;6.20;;;2.40;;
72117;SDS011;59992;47.490;8.736;2022-08-01T05:02:27;5.60;;;2.60;;
72117;SDS011;59992;47.490;8.736;2022-08-01T05:05:16;3.00;;;2.40;;
72117;SDS011;59992;47.490;8.736;2022-08-01T05:08:04;3.90;;;2.60;;
72117;SDS011;59992;47.490;8.736;2022-08-01T05:10:53;3.40;;;2.70;;
72117;SDS011;59992;47.490;8.736;2022-08-01T05:13:42;4.80;;;2.50;;
72117;SDS011;59992;47.490;8.736;2022-08-01T05:16:30;4.00;;;2.40;;
72117;SDS011;59992;47.490;8.736;2022-08-01T05:19:19;3.50;;;2.60;;
72117;SDS011;59992;47.490;8.736;2022-08-01T05:22:08;2.90;;;2.40;;
72117;SDS011;59992;47.490;8.736;2022-08-01T05:24:57;2.90;;;2.30;;
72117;SDS011;59992;47.490;8.736;2022-08-01T05:27:46;4.10;;;2.40;;
72117;SDS011;59992;47.490;8.736;2022-08-01T05:30:35;3.20;;;2.60;;
72117;SDS011;59992;47.490;8.736;2022-08-01T05:33:24;4.40;;;2.20;;
72117;SDS011;59992;47.490;8.736;2022-08-01T05:36:12;2.60;;;2.00;;
72117;SDS011;59992;47.490;8.736;2022-08-01T05:39:01;2.40;;;1.80;;
72117;SDS011;59992;47.490;8.736;2022-08-01T05:41:50;4.40;;;2.00;;
72117;SDS011;59992;47.490;8.736;2022-08-01T05:44:39;5.20;;;2.20;;
72117;SDS011;59992;47.490;8.736;2022-08-01T05:47:27;5.10;;;2.40;;
72117;SDS011;59992;47.490;8.736;2022-08-01T05:50:16;3.00;;;2.20;;
72117;SDS011;59992;47.490;8.736;2022-08-01T05:53:05;5.50;;;2.00;;
72117;SDS011;59992;47.490;8.736;2022-08-01T05:55:53;2.40;;;2.00;;
72117;SDS011;59992;47.490;8.736;2022-08-01T05:58:43;3.00;;;1.80;;
72117;SDS011;59992;47.490;8.736;2022-08-01T06:01:31;3.70;;;2.30;;
72117;SDS011;59992;47.490;8.736;2022-08-01T06:04:20;2.90;;;1.80;;
72117;SDS011;59992;47.490;8.736;2022-08-01T06:07:09;3.00;;;1.80;;
72117;SDS011;59992;47.490;8.736;2022-08-01T06:09:57;3.30;;;1.70;;
72117;SDS011;59992;47.490;8.736;2022-08-01T06:12:46;5.80;;;2.00;;
72117;SDS011;59992;47.490;8.736;2022-08-01T06:15:35;5.00;;;2.20;;
72117;SDS011;59992;47.490;8.736;2022-08-01T06:18:23;2.40;;;1.80;;
72117;SDS011;59992;47.490;8.736;2022-08-01T06:21:12;5.20;;;2.00;;
72117;SDS011;59992;47.490;8.736;2022-08-01T06:24:00;2.60;;;1.70;;
72117;SDS011;59992;47.490;8.736;2022-08-01T06:26:49;2.30;;;1.70;;
72117;SDS011;59992;47.490;8.736;2022-08-01T06:29:37;2.60;;;1.80;;
72117;SDS011;59992;47.490;8.736;2022-08-01T06:32:26;4.20;;;1.80;;
72117;SDS011;59992;47.490;8.736;2022-08-01T06:35:16;2.70;;;1.80;;
72117;SDS011;59992;47.490;8.736;2022-08-01T06:38:05;3.80;;;1.90;;
72117;SDS011;59992;47.490;8.736;2022-08-01T06:40:53;2.90;;;1.50;;
72117;SDS011;59992;47.490;8.736;2022-08-01T06:43:42;2.30;;;1.60;;
72117;SDS011;59992;47.490;8.736;2022-08-01T06:46:31;3.10;;;1.80;;
72117;SDS011;59992;47.490;8.736;2022-08-01T06:49:20;3.00;;;1.80;;
72117;SDS011;59992;47.490;8.736;2022-08-01T06:52:08;3.20;;;1.80;;
72117;SDS011;59992;47.490;8.736;2022-08-01T06:54:57;3.80;;;1.60;;
72117;SDS011;59992;47.490;8.736;2022-08-01T06:57:46;3.50;;;1.80;;
72117;SDS011;59992;47.490;8.736;2022-08-01T07:00:36;2.50;;;1.70;;
72117;SDS011;59992;47.490;8.736;2022-08-01T07:03:24;3.60;;;2.00;;
72117;SDS011;59992;47.490;8.736;2022-08-01T07:06:13;3.30;;;1.90;;
72117;SDS011;59992;47.490;8.736;2022-08-01T07:09:02;3.00;;;1.60;;
72117;SDS011;59992;47.490;8.736;2022-08-01T07:11:51;2.50;;;1.70;;
72117;SDS011;59992;47.490;8.736;2022-08-01T07:14:40;2.40;;;1.60;;
72117;SDS011;59992;47.490;8.736;2022-08-01T07:17:29;2.40;;;1.70;;
72117;SDS011;59992;47.490;8.736;2022-08-01T07:20:18;3.70;;;2.10;;
72117;SDS011;59992;47.490;8.736;2022-08-01T07:23:07;2.40;;;1.80;;
72117;SDS011;59992;47.490;8.736;2022-08-01T07:25:56;3.70;;;2.10;;
72117;SDS011;59992;47.490;8.736;2022-08-01T07:28:45;3.60;;;1.80;;
72117;SDS011;59992;47.490;8.736;2022-08-01T07:31:34;3.40;;;1.90;;
72117;SDS011;59992;47.490;8.736;2022-08-01T07:34:23;3.60;;;1.90;;
72117;SDS011;59992;47.490;8.736;2022-08-01T07:37:12;2.00;;;1.70;;
72117;SDS011;59992;47.490;8.736;2022-08-01T07:40:00;2.80;;;2.00;;
72117;SDS011;59992;47.490;8.736;2022-08-01T07:42:51;2.40;;;1.70;;
72117;SDS011;59992;47.490;8.736;2022-08-01T07:45:39;3.90;;;1.90;;
72117;SDS011;59992;47.490;8.736;2022-08-01T07:48:29;2.90;;;1.90;;
72117;SDS011;59992;47.490;8.736;2022-08-01T07:51:17;3.10;;;2.20;;
72117;SDS011;59992;47.490;8.736;2022-08-01T07:54:05;2.00;;;1.70;;
72117;SDS011;59992;47.490;8.736;2022-08-01T07:56:54;3.40;;;2.10;;
72117;SDS011;59992;47.490;8.736;2022-08-01T07:59:43;3.60;;;2.40;;
72117;SDS011;59992;47.490;8.736;2022-08-01T08:02:32;2.60;;;2.10;;
72117;SDS011;59992;47.490;8.736;2022-08-01T08:05:20;2.30;;;1.90;;
72117;SDS011;59992;47.490;8.736;2022-08-01T08:08:09;2.50;;;1.90;;
72117;SDS011;59992;47.490;8.736;2022-08-01T08:10:58;2.70;;;1.90;;
72117;SDS011;59992;47.490;8.736;2022-08-01T08:13:46;4.20;;;2.00;;
72117;SDS011;59992;47.490;8.736;2022-08-01T08:16:35;4.50;;;2.20;;
72117;SDS011;59992;47.490;8.736;2022-08-01T08:19:24;4.30;;;2.00;;
72117;SDS011;59992;47.490;8.736;2022-08-01T08:22:12;2.60;;;2.10;;
72117;SDS011;59992;47.490;8.736;2022-08-01T08:25:01;2.40;;;2.00;;
72117;SDS011;59992;47.490;8.736;2022-08-01T08:27:49;2.30;;;2.10;;
72117;SDS011;59992;47.490;8.736;2022-08-01T08:30:38;2.50;;;2.00;;
72117;SDS011;59992;47.490;8.736;2022-08-01T08:33:27;1.80;;;1.70;;
72117;SDS011;59992;47.490;8.736;2022-08-01T08:36:15;2.70;;;1.90;;
72117;SDS011;59992;47.490;8.736;2022-08-01T08:39:04;2.10;;;1.80;;
72117;SDS011;59992;47.490;8.736;2022-08-01T08:41:53;2.20;;;1.90;;
72117;SDS011;59992;47.490;8.736;2022-08-01T08:44:42;2.80;;;1.80;;
72117;SDS011;59992;47.490;8.736;2022-08-01T08:47:30;2.30;;;1.90;;
72117;SDS011;59992;47.490;8.736;2022-08-01T08:50:22;2.40;;;2.00;;
72117;SDS011;59992;47.490;8.736;2022-08-01T08:53:12;2.10;;;1.70;;
72117;SDS011;59992;47.490;8.736;2022-08-01T08:56:01;2.40;;;1.70;;
72117;SDS011;59992;47.490;8.736;2022-08-01T08:58:51;3.40;;;1.80;;
72117;SDS011;59992;47.490;8.736;2022-08-01T09:01:40;6.10;;;1.90;;
72117;SDS011;59992;47.490;8.736;2022-08-01T09:04:28;3.10;;;1.80;;
72117;SDS011;59992;47.490;8.736;2022-08-01T09:07:17;2.70;;;1.80;;
72117;SDS011;59992;47.490;8.736;2022-08-01T09:10:07;3.40;;;1.90;;
72117;SDS011;59992;47.490;8.736;2022-08-01T09:13:03;2.20;;;1.80;;
72117;SDS011;59992;47.490;8.736;2022-08-01T09:15:53;2.90;;;1.60;;
72117;SDS011;59992;47.490;8.736;2022-08-01T09:18:45;3.60;;;1.90;;
72117;SDS011;59992;47.490;8.736;2022-08-01T09:21:34;2.00;;;1.40;;
72117;SDS011;59992;47.490;8.736;2022-08-01T09:24:22;5.50;;;1.80;;
72117;SDS011;59992;47.490;8.736;2022-08-01T09:27:16;2.90;;;1.80;;
72117;SDS011;59992;47.490;8.736;2022-08-01T09:30:10;2.60;;;2.00;;
72117;SDS011;59992;47.490;8.736;2022-08-01T09:33:01;2.50;;;1.80;;
72117;SDS011;59992;47.490;8.736;2022-08-01T09:35:54;2.40;;;1.60;;
72117;SDS011;59992;47.490;8.736;2022-08-01T09:38:43;1.90;;;1.50;;
72117;SDS011;59992;47.490;8.736;2022-08-01T09:41:31;2.90;;;1.80;;
72117;SDS011;59992;47.490;8.736;2022-08-01T09:44:25;2.30;;;1.70;;
72117;SDS011;59992;47.490;8.736;2022-08-01T09:47:37;1.80;;;1.50;;
72117;SDS011;59992;47.490;8.736;2022-08-01T09:50:26;3.70;;;1.70;;
72117;SDS011;59992;47.490;8.736;2022-08-01T09:53:27;2.50;;;1.90;;
72117;SDS011;59992;47.490;8.736;2022-08-01T09:56:35;2.90;;;1.60;;
72117;SDS011;59992;47.490;8.736;2022-08-01T09:59:25;2.20;;;1.40;;
72117;SDS011;59992;47.490;8.736;2022-08-01T10:02:27;2.80;;;1.40;;
72117;SDS011;59992;47.490;8.736;2022-08-01T10:05:18;2.20;;;1.60;;
72117;SDS011;59992;47.490;8.736;2022-08-01T10:08:18;2.20;;;1.60;;
72117;SDS011;59992;47.490;8.736;2022-08-01T10:11:11;2.30;;;1.50;;
72117;SDS011;59992;47.490;8.736;2022-08-01T10:14:00;3.40;;;1.60;;
72117;SDS011;59992;47.490;8.736;2022-08-01T10:16:49;3.30;;;1.80;;
72117;SDS011;59992;47.490;8.736;2022-08-01T10:19:41;2.40;;;1.50;;
72117;SDS011;59992;47.490;8.736;2022-08-01T10:22:31;3.00;;;1.60;;
72117;SDS011;59992;47.490;8.736;2022-08-01T10:25:22;4.50;;;1.60;;
72117;SDS011;59992;47.490;8.736;2022-08-01T10:28:15;3.20;;;1.70;;
72117;SDS011;59992;47.490;8.736;2022-08-01T10:31:07;2.30;;;1.70;;
72117;SDS011;59992;47.490;8.736;2022-08-01T10:33:57;5.70;;;1.80;;
72117;SDS011;59992;47.490;8.736;2022-08-01T10:36:46;4.00;;;1.70;;
72117;SDS011;59992;47.490;8.736;2022-08-01T10:39:34;2.30;;;1.60;;
72117;SDS011;59992;47.490;8.736;2022-08-01T10:42:24;2.60;;;1.50;;
72117;SDS011;59992;47.490;8.736;2022-08-01T10:45:15;2.00;;;1.40;;
72117;SDS011;59992;47.490;8.736;2022-08-01T10:48:09;2.60;;;1.90;;
72117;SDS011;59992;47.490;8.736;2022-08-01T10:51:02;3.60;;;1.80;;
72117;SDS011;59992;47.490;8.736;2022-08-01T10:53:53;3.50;;;1.90;;
72117;SDS011;59992;47.490;8.736;2022-08-01T10:56:43;4.20;;;1.90;;
72117;SDS011;59992;47.490;8.736;2022-08-01T10:59:33;3.00;;;1.70;;
72117;SDS011;59992;47.490;8.736;2022-08-01T11:02:27;2.10;;;1.70;;
72117;SDS011;59992;47.490;8.736;2022-08-01T11:05:19;2.50;;;1.80;;
72117;SDS011;59992;47.490;8.736;2022-08-01T11:08:10;3.20;;;1.80;;
72117;SDS011;59992;47.490;8.736;2022-08-01T11:11:08;3.80;;;2.00;;
72117;SDS011;59992;47.490;8.736;2022-08-01T11:14:04;4.90;;;2.00;;
72117;SDS011;59992;47.490;8.736;2022-08-01T11:16:56;2.40;;;1.60;;
72117;SDS011;59992;47.490;8.736;2022-08-01T11:20:21;4.30;;;1.90;;
72117;SDS011;59992;47.490;8.736;2022-08-01T11:26:15;4.00;;;1.60;;
72117;SDS011;59992;47.490;8.736;2022-08-01T11:29:15;3.80;;;1.80;;
72117;SDS011;59992;47.490;8.736;2022-08-01T11:35:14;2.10;;;1.60;;
72117;SDS011;59992;47.490;8.736;2022-08-01T11:41:13;2.30;;;1.70;;
72117;SDS011;59992;47.490;8.736;2022-08-01T11:44:04;3.10;;;1.60;;
72117;SDS011;59992;47.490;8.736;2022-08-01T11:46:59;2.10;;;1.50;;
72117;SDS011;59992;47.490;8.736;2022-08-01T11:49:50;2.80;;;1.70;;
72117;SDS011;59992;47.490;8.736;2022-08-01T11:52:41;2.50;;;1.50;;
72117;SDS011;59992;47.490;8.736;2022-08-01T11:55:32;2.20;;;1.40;;
72117;SDS011;59992;47.490;8.736;2022-08-01T11:58:22;2.30;;;1.40;;
72117;SDS011;59992;47.490;8.736;2022-08-01T12:01:11;2.50;;;1.60;;
72117;SDS011;59992;47.490;8.736;2022-08-01T12:04:01;2.20;;;1.50;;
72117;SDS011;59992;47.490;8.736;2022-08-01T12:06:51;2.50;;;1.40;;
72117;SDS011;59992;47.490;8.736;2022-08-01T12:09:40;2.70;;;1.60;;
72117;SDS011;59992;47.490;8.736;2022-08-01T12:12:29;1.80;;;1.40;;
72117;SDS011;59992;47.490;8.736;2022-08-01T12:15:19;2.10;;;1.40;;
72117;SDS011;59992;47.490;8.736;2022-08-01T12:18:09;2.60;;;1.30;;
72117;SDS011;59992;47.490;8.736;2022-08-01T12:21:02;1.70;;;1.10;;
72117;SDS011;59992;47.490;8.736;2022-08-01T12:24:00;2.30;;;1.40;;
72117;SDS011;59992;47.490;8.736;2022-08-01T12:26:48;3.00;;;1.30;;
72117;SDS011;59992;47.490;8.736;2022-08-01T12:29:38;2.50;;;1.30;;
72117;SDS011;59992;47.490;8.736;2022-08-01T12:32:28;2.00;;;1.40;;
72117;SDS011;59992;47.490;8.736;2022-08-01T12:35:19;2.20;;;1.20;;
72117;SDS011;59992;47.490;8.736;2022-08-01T12:38:14;1.70;;;1.30;;
72117;SDS011;59992;47.490;8.736;2022-08-01T12:41:04;2.40;;;1.30;;
72117;SDS011;59992;47.490;8.736;2022-08-01T12:43:57;1.80;;;1.10;;
72117;SDS011;59992;47.490;8.736;2022-08-01T12:46:46;2.00;;;1.10;;
72117;SDS011;59992;47.490;8.736;2022-08-01T12:49:35;1.50;;;1.00;;
72117;SDS011;59992;47.490;8.736;2022-08-01T12:52:25;2.00;;;1.30;;
72117;SDS011;59992;47.490;8.736;2022-08-01T12:55:14;1.30;;;1.00;;
72117;SDS011;59992;47.490;8.736;2022-08-01T12:58:05;1.80;;;1.20;;
72117;SDS011;59992;47.490;8.736;2022-08-01T13:01:03;1.80;;;1.00;;
72117;SDS011;59992;47.490;8.736;2022-08-01T13:03:59;1.90;;;1.00;;
72117;SDS011;59992;47.490;8.736;2022-08-01T13:06:52;1.30;;;1.00;;
72117;SDS011;59992;47.490;8.736;2022-08-01T13:09:48;1.30;;;1.00;;
72117;SDS011;59992;47.490;8.736;2022-08-01T13:12:37;1.50;;;1.00;;
72117;SDS011;59992;47.490;8.736;2022-08-01T13:15:28;1.90;;;1.10;;
72117;SDS011;59992;47.490;8.736;2022-08-01T13:18:25;2.80;;;1.40;;
72117;SDS011;59992;47.490;8.736;2022-08-01T13:21:15;1.80;;;1.20;;
72117;SDS011;59992;47.490;8.736;2022-08-01T13:24:06;2.60;;;1.40;;
72117;SDS011;59992;47.490;8.736;2022-08-01T13:26:58;1.50;;;1.30;;
72117;SDS011;59992;47.490;8.736;2022-08-01T13:29:47;2.10;;;1.20;;
72117;SDS011;59992;47.490;8.736;2022-08-01T13:32:40;1.50;;;1.40;;
72117;SDS011;59992;47.490;8.736;2022-08-01T13:35:31;1.50;;;1.10;;
72117;SDS011;59992;47.490;8.736;2022-08-01T13:38:19;2.10;;;1.40;;
72117;SDS011;59992;47.490;8.736;2022-08-01T13:41:32;2.80;;;1.20;;
72117;SDS011;59992;47.490;8.736;2022-08-01T13:44:21;2.30;;;1.20;;
72117;SDS011;59992;47.490;8.736;2022-08-01T13:47:10;1.60;;;1.10;;
72117;SDS011;59992;47.490;8.736;2022-08-01T13:49:59;2.70;;;1.20;;
72117;SDS011;59992;47.490;8.736;2022-08-01T13:52:49;5.20;;;1.50;;
72117;SDS011;59992;47.490;8.736;2022-08-01T13:55:38;1.70;;;1.20;;
72117;SDS011;59992;47.490;8.736;2022-08-01T13:58:26;2.00;;;1.20;;
72117;SDS011;59992;47.490;8.736;2022-08-01T14:01:15;3.00;;;1.30;;
72117;SDS011;59992;47.490;8.736;2022-08-01T14:04:04;1.30;;;1.00;;
72117;SDS011;59992;47.490;8.736;2022-08-01T14:06:54;2.00;;;1.40;;
72117;SDS011;59992;47.490;8.736;2022-08-01T14:09:42;2.40;;;1.20;;
72117;SDS011;59992;47.490;8.736;2022-08-01T14:12:31;1.90;;;0.90;;
72117;SDS011;59992;47.490;8.736;2022-08-01T14:15:20;1.30;;;0.90;;
72117;SDS011;59992;47.490;8.736;2022-08-01T14:18:08;1.90;;;1.10;;
72117;SDS011;59992;47.490;8.736;2022-08-01T14:20:57;1.60;;;1.10;;
72117;SDS011;59992;47.490;8.736;2022-08-01T14:23:45;1.60;;;0.90;;
72117;SDS011;59992;47.490;8.736;2022-08-01T14:26:34;1.30;;;0.80;;
72117;SDS011;59992;47.490;8.736;2022-08-01T14:29:22;2.50;;;0.70;;
72117;SDS011;59992;47.490;8.736;2022-08-01T14:32:11;0.90;;;0.60;;
72117;SDS011;59992;47.490;8.736;2022-08-01T14:34:59;1.50;;;0.70;;
72117;SDS011;59992;47.490;8.736;2022-08-01T14:37:48;1.00;;;0.70;;
72117;SDS011;59992;47.490;8.736;2022-08-01T14:40:36;1.10;;;0.70;;
72117;SDS011;59992;47.490;8.736;2022-08-01T14:43:25;1.80;;;0.60;;
72117;SDS011;59992;47.490;8.736;2022-08-01T14:46:14;1.40;;;0.60;;
72117;SDS011;59992;47.490;8.736;2022-08-01T14:49:02;1.30;;;0.70;;
72117;SDS011;59992;47.490;8.736;2022-08-01T14:51:51;2.00;;;0.90;;
72117;SDS011;59992;47.490;8.736;2022-08-01T14:54:39;1.40;;;0.90;;
72117;SDS011;59992;47.490;8.736;2022-08-01T14:57:28;1.40;;;0.70;;
72117;SDS011;59992;47.490;8.736;2022-08-01T15:00:17;1.60;;;0.90;;
72117;SDS011;59992;47.490;8.736;2022-08-01T15:03:08;2.10;;;1.00;;
72117;SDS011;59992;47.490;8.736;2022-08-01T15:05:56;1.20;;;0.80;;
72117;SDS011;59992;47.490;8.736;2022-08-01T15:08:44;1.80;;;0.80;;
72117;SDS011;59992;47.490;8.736;2022-08-01T15:11:33;3.80;;;0.80;;
72117;SDS011;59992;47.490;8.736;2022-08-01T15:14:22;2.80;;;0.60;;
72117;SDS011;59992;47.490;8.736;2022-08-01T15:17:30;1.30;;;0.70;;
72117;SDS011;59992;47.490;8.736;2022-08-01T15:20:19;0.80;;;0.60;;
72117;SDS011;59992;47.490;8.736;2022-08-01T15:23:08;1.80;;;0.60;;
72117;SDS011;59992;47.490;8.736;2022-08-01T15:25:56;1.80;;;0.70;;
72117;SDS011;59992;47.490;8.736;2022-08-01T15:28:45;1.30;;;0.70;;
72117;SDS011;59992;47.490;8.736;2022-08-01T15:31:34;1.30;;;0.80;;
72117;SDS011;59992;47.490;8.736;2022-08-01T15:34:23;2.50;;;1.00;;
72117;SDS011;59992;47.490;8.736;2022-08-01T15:37:12;0.90;;;0.60;;
72117;SDS011;59992;47.490;8.736;2022-08-01T15:40:01;3.40;;;0.70;;
72117;SDS011;59992;47.490;8.736;2022-08-01T15:42:51;1.20;;;0.80;;
72117;SDS011;59992;47.490;8.736;2022-08-01T15:45:40;2.60;;;1.00;;
72117;SDS011;59992;47.490;8.736;2022-08-01T15:48:28;1.30;;;0.80;;
72117;SDS011;59992;47.490;8.736;2022-08-01T15:51:16;1.60;;;0.90;;
72117;SDS011;59992;47.490;8.736;2022-08-01T15:54:05;3.30;;;1.00;;
72117;SDS011;59992;47.490;8.736;2022-08-01T15:56:55;1.50;;;0.90;;
72117;SDS011;59992;47.490;8.736;2022-08-01T15:59:43;1.50;;;0.80;;
72117;SDS011;59992;47.490;8.736;2022-08-01T16:02:31;1.40;;;1.10;;
72117;SDS011;59992;47.490;8.736;2022-08-01T16:05:20;1.80;;;1.20;;
72117;SDS011;59992;47.490;8.736;2022-08-01T16:08:09;1.40;;;1.00;;
72117;SDS011;59992;47.490;8.736;2022-08-01T16:10:59;1.50;;;0.90;;
72117;SDS011;59992;47.490;8.736;2022-08-01T16:13:47;1.60;;;0.90;;
72117;SDS011;59992;47.490;8.736;2022-08-01T16:16:36;2.50;;;1.10;;
72117;SDS011;59992;47.490;8.736;2022-08-01T16:19:24;2.00;;;0.90;;
72117;SDS011;59992;47.490;8.736;2022-08-01T16:22:13;2.50;;;1.00;;
72117;SDS011;59992;47.490;8.736;2022-08-01T16:25:01;1.80;;;1.00;;
72117;SDS011;59992;47.490;8.736;2022-08-01T16:27:50;2.40;;;1.00;;
72117;SDS011;59992;47.490;8.736;2022-08-01T16:30:39;2.60;;;1.20;;
72117;SDS011;59992;47.490;8.736;2022-08-01T16:33:28;2.00;;;0.90;;
72117;SDS011;59992;47.490;8.736;2022-08-01T16:36:18;5.20;;;1.20;;
72117;SDS011;59992;47.490;8.736;2022-08-01T16:39:08;1.60;;;1.10;;
72117;SDS011;59992;47.490;8.736;2022-08-01T16:41:56;2.00;;;1.10;;
72117;SDS011;59992;47.490;8.736;2022-08-01T16:44:45;3.00;;;1.20;;
72117;SDS011;59992;47.490;8.736;2022-08-01T16:47:33;3.10;;;1.20;;
72117;SDS011;59992;47.490;8.736;2022-08-01T16:50:22;2.80;;;1.30;;
72117;SDS011;59992;47.490;8.736;2022-08-01T16:53:11;3.00;;;1.20;;
72117;SDS011;59992;47.490;8.736;2022-08-01T16:55:59;1.80;;;1.30;;
72117;SDS011;59992;47.490;8.736;2022-08-01T16:58:47;2.90;;;1.30;;
72117;SDS011;59992;47.490;8.736;2022-08-01T17:01:36;2.70;;;1.30;;
72117;SDS011;59992;47.490;8.736;2022-08-01T17:04:24;3.60;;;1.40;;
72117;SDS011;59992;47.490;8.736;2022-08-01T17:07:13;1.90;;;1.40;;
72117;SDS011;59992;47.490;8.736;2022-08-01T17:10:02;1.90;;;1.10;;
72117;SDS011;59992;47.490;8.736;2022-08-01T17:12:52;2.40;;;1.10;;
72117;SDS011;59992;47.490;8.736;2022-08-01T17:15:40;1.90;;;1.20;;
72117;SDS011;59992;47.490;8.736;2022-08-01T17:18:29;4.20;;;1.20;;